Time;durP1;ratioP1;P1;durP2;ratioP2;P2;SDS_P1;SDS_P2;PMS_P1;PMS_P2;Temp;Humidity;BMP_temperature;BMP_pressure;BME280_temperature;BME280_humidity;BME280_pressure;Samples;Min_cycle;Max_cycle;Signal;HPM_P1;HPM_P2
2022/03/16 00:00:09;;;;;;;;;21.33;16.33;;;;;12.10;100.00;101588.50;4989063;28;45441;-79
2022/03/16 00:02:34;;;;;;;;;15.00;15.00;;;;;11.68;100.00;101526.53;4991030;28;45178;-78
2022/03/16 00:05:00;;;;;;;;;17.33;16.33;;;;;11.87;100.00;101537.25;4989710;28;45425;-78
2022/03/16 00:07:26;;;;;;;;;16.33;16.00;;;;;10.55;100.00;101310.91;4968870;28;45408;-79
2022/03/16 00:09:51;;;;;;;;;20.67;17.00;;;;;12.03;100.00;101578.94;4968260;28;45091;-80
2022/03/16 00:12:17;;;;;;;;;21.33;16.67;;;;;12.13;100.00;101574.69;4987060;28;45578;-79
2022/03/16 00:14:43;;;;;;;;;15.00;15.00;;;;;11.59;100.00;101489.81;4988130;28;45877;-79
2022/03/16 00:17:09;;;;;;;;;15.67;15.00;;;;;12.01;100.00;101564.53;4965974;28;45544;-79
2022/03/16 00:19:34;;;;;;;;;15.00;15.00;;;;;12.14;100.00;101583.75;4985731;28;45143;-79
2022/03/16 00:22:02;;;;;;;;;16.00;14.33;;;;;12.14;100.00;101583.75;4988457;28;45169;-79
2022/03/16 00:24:27;;;;;;;;;16.67;16.00;;;;;12.14;100.00;101592.81;4969832;28;47295;-80
2022/03/16 00:26:53;;;;;;;;;23.00;18.67;;;;;12.08;100.00;101570.50;4990403;28;45016;-79
2022/03/16 00:29:18;;;;;;;;;20.33;15.67;;;;;11.88;100.00;101537.13;4989623;28;45360;-80
2022/03/16 00:31:44;;;;;;;;;15.33;15.33;;;;;10.52;100.00;101299.31;4990132;28;45018;-79
2022/03/16 00:34:09;;;;;;;;;17.67;14.33;;;;;11.78;100.00;101521.41;4989672;28;45884;-79
2022/03/16 00:36:35;;;;;;;;;17.00;17.00;;;;;12.06;100.00;101565.13;4989400;28;45160;-79
2022/03/16 00:39:00;;;;;;;;;14.67;13.67;;;;;12.12;100.00;101578.41;4972422;28;45147;-80
2022/03/16 00:41:25;;;;;;;;;16.67;14.00;;;;;12.13;100.00;101580.16;4991660;28;45529;-79
2022/03/16 00:43:52;;;;;;;;;19.67;17.67;;;;;11.56;100.00;101479.13;4989756;28;45347;-79
2022/03/16 00:46:18;;;;;;;;;19.00;18.00;;;;;11.85;100.00;101531.00;4982984;28;45225;-80
2022/03/16 00:48:43;;;;;;;;;15.67;14.33;;;;;12.15;100.00;101580.06;4991754;28;45165;-78
2022/03/16 00:51:09;;;;;;;;;17.67;16.33;;;;;12.15;100.00;101574.59;4987377;28;45524;-78
2022/03/16 00:53:35;;;;;;;;;16.67;16.00;;;;;12.15;100.00;101567.28;4989479;28;45161;-78
2022/03/16 00:56:02;;;;;;;;;15.33;12.00;;;;;12.02;100.00;101543.63;4972069;28;45343;-79
2022/03/16 00:58:28;;;;;;;;;14.00;14.00;;;;;12.07;100.00;101544.22;4985254;28;45485;-79
2022/03/16 01:00:53;;;;;;;;;17.00;16.00;;;;;12.01;100.00;101534.53;4989646;28;45043;-79
2022/03/16 01:03:19;;;;;;;;;21.00;16.67;;;;;11.97;100.00;101526.66;4985727;28;45995;-78
2022/03/16 01:05:45;;;;;;;;;19.67;14.33;;;;;11.94;100.00;101516.81;4989679;28;45030;-78
2022/03/16 01:08:13;;;;;;;;;13.33;13.33;;;;;12.15;100.00;101553.66;4984658;28;45343;-78
2022/03/16 01:10:39;;;;;;;;;15.33;13.67;;;;;12.13;100.00;101546.56;4978442;28;45540;-78
2022/03/16 01:13:05;;;;;;;;;18.00;17.00;;;;;12.13;100.00;101547.44;4985801;28;46277;-79
2022/03/16 01:15:31;;;;;;;;;15.33;13.67;;;;;12.03;100.00;101534.47;4977786;28;45298;-78
2022/03/16 01:17:56;;;;;;;;;15.33;13.67;;;;;12.06;100.00;101535.13;4987620;28;45369;-79
2022/03/16 01:20:22;;;;;;;;;17.33;16.00;;;;;11.98;100.00;101522.97;4980879;28;45461;-78
2022/03/16 01:22:47;;;;;;;;;15.33;13.67;;;;;12.03;100.00;101531.75;4989760;28;46266;-78
2022/03/16 01:25:12;;;;;;;;;18.33;15.00;;;;;12.11;100.00;101537.59;4989286;28;45342;-78
2022/03/16 01:27:38;;;;;;;;;14.33;14.00;;;;;12.09;100.00;101528.63;4978970;28;45320;-79
2022/03/16 01:30:04;;;;;;;;;17.00;15.33;;;;;12.09;100.00;101534.09;4983181;28;45315;-79
2022/03/16 01:32:30;;;;;;;;;12.00;11.00;;;;;12.08;100.00;101527.75;4976971;28;46423;-78
2022/03/16 01:34:55;;;;;;;;;17.33;14.67;;;;;12.06;100.00;101518.78;4984224;28;45383;-79
2022/03/16 01:37:21;;;;;;;;;13.33;13.33;;;;;12.06;100.00;101512.47;4989388;28;45184;-79
2022/03/16 01:39:46;;;;;;;;;14.67;13.33;;;;;12.04;100.00;101519.88;4988061;28;45185;-79
2022/03/16 01:42:12;;;;;;;;;15.00;15.00;;;;;12.03;100.00;101510.81;4987182;28;45401;-79
2022/03/16 01:44:40;;;;;;;;;12.67;11.67;;;;;12.03;100.00;101509.94;4981521;28;45266;-80
2022/03/16 01:47:05;;;;;;;;;15.00;12.33;;;;;11.91;100.00;101495.19;4990641;28;45307;-79
2022/03/16 01:49:31;;;;;;;;;13.33;13.00;;;;;11.91;100.00;101498.81;4994698;28;45124;-79
2022/03/16 01:51:56;;;;;;;;;14.00;13.00;;;;;11.89;100.00;101498.03;4990504;28;45157;-80
2022/03/16 01:54:22;;;;;;;;;12.67;12.33;;;;;11.57;100.00;101441.84;4989230;28;45186;-79
2022/03/16 01:56:47;;;;;;;;;14.67;12.33;;;;;11.75;100.00;101470.69;4969032;28;45304;-79
2022/03/16 01:59:12;;;;;;;;;13.67;13.00;;;;;11.92;100.00;101502.41;4987385;28;45301;-79
2022/03/16 02:01:38;;;;;;;;;12.33;11.67;;;;;11.73;100.00;101471.78;4987389;28;45741;-80
2022/03/16 02:04:04;;;;;;;;;14.67;13.67;;;;;11.92;100.00;101508.75;4987839;28;45008;-79
2022/03/16 02:06:29;;;;;;;;;16.67;12.67;;;;;11.98;100.00;101518.41;4961250;28;45536;-79
2022/03/16 02:08:55;;;;;;;;;17.00;14.67;;;;;11.98;100.00;101518.41;4978616;28;45515;-79
2022/03/16 02:11:21;;;;;;;;;12.00;12.00;;;;;11.88;100.00;101500.84;4976640;28;45569;-79
2022/03/16 02:13:47;;;;;;;;;12.00;9.67;;;;;11.90;100.00;101504.34;4983659;28;45493;-79
2022/03/16 02:16:12;;;;;;;;;14.67;14.33;;;;;11.70;100.00;101462.78;4988083;28;45219;-80
2022/03/16 02:18:38;;;;;;;;;14.67;12.33;;;;;11.89;100.00;101500.75;4974335;28;45505;-80
2022/03/16 02:21:06;;;;;;;;;13.00;13.00;;;;;11.96;100.00;101512.13;4962328;28;47783;-80
2022/03/16 02:23:32;;;;;;;;;22.00;15.00;;;;;11.95;100.00;101508.53;4984311;28;45344;-79
2022/03/16 02:25:57;;;;;;;;;13.33;13.00;;;;;11.94;100.00;101512.25;4981122;28;45542;-80
2022/03/16 02:28:24;;;;;;;;;16.67;16.00;;;;;11.87;100.00;101496.38;4961941;28;45414;-80
2022/03/16 02:30:50;;;;;;;;;16.00;16.00;;;;;11.74;100.00;101466.22;4976335;28;45520;-80
2022/03/16 02:33:16;;;;;;;;;14.67;13.33;;;;;11.93;100.00;101504.16;4978616;28;45284;-80
2022/03/16 02:35:41;;;;;;;;;17.33;15.33;;;;;11.66;100.00;101453.06;4980450;28;45419;-79
2022/03/16 02:38:07;;;;;;;;;18.00;15.33;;;;;11.67;100.00;101454.81;4981968;28;45551;-79
2022/03/16 02:40:32;;;;;;;;;16.00;16.00;;;;;11.62;100.00;101453.34;4981792;28;45551;-79
2022/03/16 02:42:58;;;;;;;;;15.67;15.67;;;;;11.91;100.00;101497.91;4979532;28;45379;-80
2022/03/16 02:45:23;;;;;;;;;14.00;14.00;;;;;11.66;100.00;101453.06;4981650;28;45352;-79
2022/03/16 02:47:49;;;;;;;;;16.33;15.00;;;;;11.66;100.00;101455.81;4978345;28;45315;-80
2022/03/16 02:50:19;;;;;;;;;18.00;14.33;;;;;11.88;100.00;101495.41;4978534;28;45999;-80
2022/03/16 02:52:45;;;;;;;;;16.33;15.00;;;;;11.79;100.00;101485.88;4962959;28;45311;-80
2022/03/16 02:55:11;;;;;;;;;16.33;15.67;;;;;11.86;100.00;101491.88;4969578;28;45470;-80
2022/03/16 02:57:37;;;;;;;;;18.67;17.33;;;;;11.74;100.00;101476.25;4979911;28;45702;-80
2022/03/16 03:00:07;;;;;;;;;17.33;15.67;;;;;11.78;100.00;101477.81;4981667;28;46635;-80
2022/03/16 03:02:33;;;;;;;;;18.33;15.67;;;;;11.83;100.00;101489.34;4973861;28;45231;-80
2022/03/16 03:04:59;;;;;;;;;24.33;20.33;;;;;11.82;100.00;101483.03;4971928;28;45348;-80
2022/03/16 03:07:24;;;;;;;;;18.00;14.67;;;;;11.68;100.00;101461.16;4981449;28;45155;-80
2022/03/16 03:09:49;;;;;;;;;18.00;18.00;;;;;11.63;100.00;101455.97;4979310;28;45403;-80
2022/03/16 03:12:15;;;;;;;;;17.00;16.00;;;;;11.81;100.00;101494.88;4974263;28;45079;-79
2022/03/16 03:14:40;;;;;;;;;20.67;16.67;;;;;11.72;100.00;101475.47;4980553;28;45459;-80
2022/03/16 03:17:06;;;;;;;;;18.00;18.00;;;;;11.80;100.00;101498.53;4975694;28;45205;-80
2022/03/16 03:19:32;;;;;;;;;17.00;17.00;;;;;11.81;100.00;101499.41;4981938;28;47150;-80
2022/03/16 03:21:57;;;;;;;;;17.67;16.33;;;;;11.68;100.00;101480.22;4985435;28;45279;-80
2022/03/16 03:24:23;;;;;;;;;20.67;18.00;;;;;11.62;100.00;101470.56;4980483;28;45271;-79
2022/03/16 03:26:48;;;;;;;;;21.00;18.33;;;;;11.72;100.00;101484.50;4972519;28;45218;-79
2022/03/16 03:29:14;;;;;;;;;19.67;19.00;;;;;11.61;100.00;101463.38;4977867;28;45722;-79
2022/03/16 03:31:40;;;;;;;;;15.67;13.00;;;;;11.81;100.00;101493.97;4984124;28;45027;-79
2022/03/16 03:34:05;;;;;;;;;20.00;20.00;;;;;11.82;100.00;101490.31;4983618;28;45122;-79
2022/03/16 03:36:31;;;;;;;;;20.00;16.00;;;;;11.41;100.00;101421.00;4972397;28;45142;-79
2022/03/16 03:38:56;;;;;;;;;21.33;19.33;;;;;11.58;100.00;101451.78;4978449;28;45501;-79
2022/03/16 03:41:21;;;;;;;;;21.00;20.00;;;;;11.57;100.00;101445.47;4991978;28;45130;-78
2022/03/16 03:43:47;;;;;;;;;18.67;18.00;;;;;11.84;100.00;101494.69;4991195;28;45020;-79
2022/03/16 03:46:13;;;;;;;;;20.67;15.00;;;;;11.66;100.00;101461.25;4991864;28;45182;-79
2022/03/16 03:48:38;;;;;;;;;23.00;19.67;;;;;11.77;100.00;101476.06;4989320;28;45484;-79
2022/03/16 03:51:04;;;;;;;;;22.67;19.67;;;;;11.64;100.00;101452.28;4991726;28;45102;-79
2022/03/16 03:53:29;;;;;;;;;23.00;19.00;;;;;11.86;100.00;101500.03;4989766;28;45241;-79
2022/03/16 03:55:55;;;;;;;;;20.00;18.67;;;;;11.79;100.00;101479.56;4980257;28;45398;-79
2022/03/16 03:58:20;;;;;;;;;19.67;19.33;;;;;11.86;100.00;101491.88;4989121;28;45709;-79
2022/03/16 04:00:46;;;;;;;;;17.33;16.67;;;;;11.87;100.00;101501.81;4972054;28;45410;-79
2022/03/16 04:03:11;;;;;;;;;26.67;21.33;;;;;11.86;100.00;101490.06;4973832;28;45408;-79
2022/03/16 04:05:36;;;;;;;;;19.00;17.00;;;;;11.84;100.00;101493.81;4983117;28;45509;-79
2022/03/16 04:08:02;;;;;;;;;23.67;18.33;;;;;11.78;100.00;101486.00;4974799;28;47073;-79
2022/03/16 04:10:27;;;;;;;;;21.00;19.00;;;;;11.55;100.00;101441.94;4984089;28;45344;-79
2022/03/16 04:12:52;;;;;;;;;18.00;15.67;;;;;11.69;100.00;101465.63;4976674;28;45482;-79
2022/03/16 04:15:20;;;;;;;;;18.33;17.67;;;;;11.62;100.00;101443.34;4982671;28;45386;-79
2022/03/16 04:17:46;;;;;;;;;25.00;19.67;;;;;11.44;100.00;101407.19;4980046;28;45320;-79
2022/03/16 04:20:11;;;;;;;;;19.00;17.67;;;;;11.81;100.00;101473.06;4976949;28;45310;-79
2022/03/16 04:22:37;;;;;;;;;20.33;19.00;;;;;11.81;100.00;101464.00;4979787;28;45559;-79
2022/03/16 04:25:03;;;;;;;;;23.67;20.00;;;;;11.79;100.00;101464.09;4975461;28;45579;-79
2022/03/16 04:27:29;;;;;;;;;22.67;19.67;;;;;11.79;100.00;101457.78;4981587;28;45671;-78
2022/03/16 04:29:55;;;;;;;;;23.00;20.33;;;;;11.51;100.00;101406.84;4982135;28;45574;-79
2022/03/16 04:32:20;;;;;;;;;25.33;18.00;;;;;11.46;100.00;101398.06;4964815;28;46815;-79
2022/03/16 04:34:45;;;;;;;;;28.67;23.33;;;;;11.76;100.00;101453.41;4980391;28;45319;-78
2022/03/16 04:37:11;;;;;;;;;26.33;20.33;;;;;11.77;100.00;101459.72;4980753;28;45397;-80
2022/03/16 04:39:37;;;;;;;;;27.00;22.67;;;;;11.75;100.00;101453.47;4979542;28;45335;-79
2022/03/16 04:42:02;;;;;;;;;23.25;20.75;;;;;11.51;100.00;101413.16;4978963;28;45394;-79
2022/03/16 04:44:28;;;;;;;;;19.33;17.67;;;;;11.72;100.00;101449.09;4982673;28;45573;-78
2022/03/16 04:46:53;;;;;;;;;24.33;18.33;;;;;11.72;100.00;101450.97;4979374;28;45569;-79
2022/03/16 04:49:18;;;;;;;;;17.00;15.67;;;;;11.58;100.00;101433.59;4983929;28;45451;-79
2022/03/16 04:51:44;;;;;;;;;29.33;20.67;;;;;11.70;100.00;101442.84;4979411;28;45404;-79
2022/03/16 04:54:09;;;;;;;;;27.33;24.00;;;;;11.57;100.00;101428.25;4981338;28;45574;-79
2022/03/16 04:56:37;;;;;;;;;18.67;17.00;;;;;11.43;100.00;101400.00;4963039;28;47165;-79
2022/03/16 04:59:04;;;;;;;;;23.67;22.33;;;;;11.68;100.00;101447.53;4984160;28;45203;-79
2022/03/16 05:01:30;;;;;;;;;22.00;19.00;;;;;11.53;100.00;101421.22;4977658;28;45547;-79
2022/03/16 05:03:55;;;;;;;;;20.33;18.00;;;;;11.58;100.00;101443.59;4969425;28;45450;-79
2022/03/16 05:06:21;;;;;;;;;22.33;20.00;;;;;11.65;100.00;101456.75;4956774;28;45490;-79
2022/03/16 05:08:47;;;;;;;;;29.33;21.33;;;;;11.64;100.00;101454.13;4960757;28;45430;-79
2022/03/16 05:11:14;;;;;;;;;22.67;20.00;;;;;11.63;100.00;101446.94;4976918;28;45362;-79
2022/03/16 05:13:40;;;;;;;;;26.33;19.33;;;;;11.52;100.00;101436.69;4985658;28;45390;-80
2022/03/16 05:16:07;;;;;;;;;20.33;20.33;;;;;11.60;100.00;101442.53;4975176;28;45295;-79
2022/03/16 05:18:33;;;;;;;;;22.33;20.00;;;;;11.59;100.00;101437.19;4965506;28;45279;-79
2022/03/16 05:20:59;;;;;;;;;18.33;17.33;;;;;11.26;100.00;101377.47;4967236;28;45507;-79
2022/03/16 05:23:24;;;;;;;;;18.00;15.33;;;;;11.57;100.00;101436.41;4962125;28;45348;-79
2022/03/16 05:25:49;;;;;;;;;21.25;21.00;;;;;11.56;100.00;101434.66;4936779;28;47530;-79
2022/03/16 05:28:16;;;;;;;;;21.67;20.33;;;;;11.55;100.00;101447.38;4956849;28;45655;-79
2022/03/16 05:30:42;;;;;;;;;24.33;22.33;;;;;11.20;100.00;101375.09;4964735;28;45865;-78
2022/03/16 05:33:07;;;;;;;;;30.67;23.33;;;;;11.44;100.00;101433.53;4960634;28;45504;-78
2022/03/16 05:35:33;;;;;;;;;19.00;17.33;;;;;11.48;100.00;101447.84;4967051;28;45661;-78
2022/03/16 05:38:00;;;;;;;;;23.00;20.67;;;;;11.31;100.00;101416.19;4961068;28;46776;-79
2022/03/16 05:40:25;;;;;;;;;20.00;19.00;;;;;11.31;100.00;101425.25;4982582;28;45248;-79
2022/03/16 05:42:51;;;;;;;;;24.33;23.33;;;;;11.55;100.00;101466.44;4960072;28;45604;-79
2022/03/16 05:45:16;;;;;;;;;23.67;21.67;;;;;11.55;100.00;101471.00;4965696;28;46005;-79
2022/03/16 05:47:42;;;;;;;;;22.00;20.67;;;;;11.54;100.00;101470.13;4966781;28;45312;-79
2022/03/16 05:50:07;;;;;;;;;29.33;26.00;;;;;11.42;100.00;101452.69;4961630;28;45732;-79
2022/03/16 05:52:33;;;;;;;;;22.00;21.00;;;;;11.53;100.00;101476.56;4959629;28;45323;-78
2022/03/16 05:54:59;;;;;;;;;25.33;21.00;;;;;11.53;100.00;101465.66;4961326;28;45620;-80
2022/03/16 05:57:39;;;;;;;;;22.25;20.50;;;;;11.25;100.00;101420.13;4969139;28;45086;-81
2022/03/16 06:00:11;;;;;;;;;22.00;21.00;;;;;11.30;100.00;101426.19;4942900;28;45371;-79
2022/03/16 06:02:36;;;;;;;;;26.00;24.33;;;;;11.25;100.00;101421.97;4953657;28;45335;-79
2022/03/16 06:05:02;;;;;;;;;21.67;20.67;;;;;11.39;100.00;101452.00;4972598;28;45438;-79
2022/03/16 06:07:27;;;;;;;;;23.00;21.33;;;;;11.37;100.00;101449.38;4962616;28;45503;-79
2022/03/16 06:09:52;;;;;;;;;21.67;21.00;;;;;11.51;100.00;101466.75;4954559;28;45476;-79
2022/03/16 06:12:17;;;;;;;;;26.33;22.67;;;;;11.30;100.00;101431.63;4956668;28;45383;-79
2022/03/16 06:14:43;;;;;;;;;29.75;25.50;;;;;11.13;100.00;101409.97;4963295;28;46353;-80
2022/03/16 06:17:08;;;;;;;;;30.50;26.25;;;;;11.52;100.00;101476.66;4965307;28;45280;-79
2022/03/16 06:19:33;;;;;;;;;24.25;22.50;;;;;11.51;100.00;101475.78;4965834;28;45461;-80
2022/03/16 06:21:59;;;;;;;;;24.75;22.25;;;;;11.36;100.00;101458.50;4953959;28;45522;-79
2022/03/16 06:24:24;;;;;;;;;24.75;22.75;;;;;10.76;100.00;101341.41;4954897;28;46084;-80
2022/03/16 06:26:50;;;;;;;;;23.00;21.50;;;;;11.23;100.00;101421.19;4968609;28;45446;-79
2022/03/16 06:29:15;;;;;;;;;23.33;20.67;;;;;11.48;100.00;101465.06;4966967;28;45257;-80
2022/03/16 06:31:40;;;;;;;;;23.00;22.67;;;;;11.18;100.00;101419.63;4960666;28;45684;-79
2022/03/16 06:34:06;;;;;;;;;24.00;23.00;;;;;11.27;100.00;101447.28;4971315;28;46258;-80
2022/03/16 06:36:31;;;;;;;;;24.33;23.33;;;;;11.25;100.00;101441.03;4975405;28;45849;-79
2022/03/16 06:38:57;;;;;;;;;24.33;23.00;;;;;11.49;100.00;101482.28;4962090;28;45882;-79
2022/03/16 06:41:23;;;;;;;;;24.00;21.00;;;;;11.09;100.00;101414.72;4972226;28;45274;-79
2022/03/16 06:43:48;;;;;;;;;20.67;20.00;;;;;11.49;100.00;101483.16;4975292;28;46366;-79
2022/03/16 06:46:14;;;;;;;;;24.75;20.00;;;;;11.50;100.00;101484.91;4983194;28;45643;-80
2022/03/16 06:48:40;;;;;;;;;31.00;30.00;;;;;11.14;100.00;101423.50;4983499;28;45464;-80
2022/03/16 06:51:06;;;;;;;;;26.33;22.67;;;;;11.50;100.00;101497.63;4978619;28;45465;-80
2022/03/16 06:53:32;;;;;;;;;25.33;24.33;;;;;11.35;100.00;101474.91;4981947;28;45722;-78
2022/03/16 06:55:58;;;;;;;;;23.67;22.00;;;;;11.50;100.00;101501.22;4977712;28;45445;-78
2022/03/16 06:58:23;;;;;;;;;29.75;27.25;;;;;11.50;100.00;101498.50;4973066;28;45620;-78
2022/03/16 07:00:49;;;;;;;;;24.00;20.00;;;;;11.24;100.00;101461.94;4977550;28;45663;-77
2022/03/16 07:03:14;;;;;;;;;89.25;70.00;;;;;11.45;100.00;101497.91;4971758;28;45342;-78
2022/03/16 07:05:41;;;;;;;;;34.75;29.75;;;;;11.55;100.00;101511.84;4971981;28;45419;-78
2022/03/16 07:08:11;;;;;;;;;37.50;31.50;;;;;11.55;100.00;101509.13;4976836;28;44788;-79
2022/03/16 07:10:40;;;;;;;;;30.50;28.50;;;;;11.55;100.00;101503.69;4984269;28;45409;-79
2022/03/16 07:13:06;;;;;;;;;30.25;26.25;;;;;11.48;100.00;101491.41;4979339;28;45529;-78
2022/03/16 07:15:32;;;;;;;;;27.00;21.67;;;;;11.57;100.00;101504.50;4975673;28;45468;-78
2022/03/16 07:17:58;;;;;;;;;25.67;24.67;;;;;11.58;100.00;101508.97;4974679;28;45591;-77
2022/03/16 07:20:24;;;;;;;;;29.67;25.33;;;;;11.24;100.00;101442.00;4975317;28;44745;-77
2022/03/16 07:23:10;;;;;;;;;24.75;22.50;;;;;11.60;100.00;101504.28;4974960;28;45362;-77
2022/03/16 07:25:40;;;;;;;;;31.25;25.75;;;;;11.61;100.00;101504.22;4975205;28;45362;-78
2022/03/16 07:28:07;;;;;;;;;30.75;27.00;;;;;11.62;100.00;101513.28;4975651;28;45379;-76
2022/03/16 07:30:33;;;;;;;;;25.75;22.00;;;;;11.64;100.00;101508.59;4975419;28;45469;-77
2022/03/16 07:32:58;;;;;;;;;25.75;24.50;;;;;11.64;100.00;101500.44;4973987;28;45943;-77
2022/03/16 07:35:26;;;;;;;;;26.25;25.00;;;;;11.59;100.00;101488.94;4973689;28;45469;-78
2022/03/16 07:37:53;;;;;;;;;16.50;12.50;;;;;11.57;100.00;101486.31;4973852;28;45520;-78
2022/03/16 07:40:18;;;;;;;;;25.25;22.75;;;;;11.34;100.00;101454.97;4975713;28;45662;-79
2022/03/16 07:42:46;;;;;;;;;26.75;26.25;;;;;11.65;100.00;101502.19;4973793;28;45461;-78
2022/03/16 07:45:14;;;;;;;;;24.50;23.50;;;;;11.51;100.00;101474.91;4974014;28;45371;-79
2022/03/16 07:47:39;;;;;;;;;46.50;40.50;;;;;11.67;100.00;101502.97;4975801;28;45524;-79
2022/03/16 07:50:06;;;;;;;;;47.00;37.00;;;;;11.67;100.00;101503.84;4976387;28;45768;-78
2022/03/16 07:52:32;;;;;;;;;31.00;27.67;;;;;11.67;100.00;101502.97;4973791;28;47096;-78
2022/03/16 07:54:57;;;;;;;;;78.50;56.00;;;;;11.68;100.00;101504.72;4985527;28;45286;-78
2022/03/16 07:57:23;;;;;;;;;41.50;34.25;;;;;11.71;100.00;101507.28;4975983;28;45308;-78
2022/03/16 07:59:48;;;;;;;;;47.75;36.50;;;;;10.52;100.00;101311.06;4975388;28;45435;-78
2022/03/16 08:02:16;;;;;;;;;33.50;33.00;;;;;11.71;100.00;101501.84;4956979;28;51862;-78
2022/03/16 08:04:42;;;;;;;;;30.50;28.00;;;;;11.71;100.00;101510.00;4974748;28;45513;-79
2022/03/16 08:07:09;;;;;;;;;29.75;27.75;;;;;11.68;100.00;101502.88;4973687;28;45466;-78
2022/03/16 08:09:35;;;;;;;;;27.50;25.50;;;;;11.68;100.00;101500.16;4978474;28;45220;-79
2022/03/16 08:12:00;;;;;;;;;26.67;25.67;;;;;11.32;100.00;101442.44;4975810;28;46182;-80
2022/03/16 08:14:26;;;;;;;;;25.75;24.25;;;;;11.73;100.00;101499.88;4974705;28;45350;-79
2022/03/16 08:16:51;;;;;;;;;24.67;23.67;;;;;11.65;100.00;101481.25;4974822;28;45813;-79
2022/03/16 08:19:18;;;;;;;;;24.75;22.75;;;;;11.38;100.00;101423.88;4974044;28;45370;-79
2022/03/16 08:21:43;;;;;;;;;30.25;29.75;;;;;10.32;100.00;101257.00;4974471;28;45978;-79
2022/03/16 08:24:09;;;;;;;;;24.50;22.50;;;;;11.78;100.00;101491.44;4974983;28;45482;-80
2022/03/16 08:26:35;;;;;;;;;31.00;29.25;;;;;11.66;100.00;101474.00;4974712;28;45321;-79
2022/03/16 08:29:00;;;;;;;;;32.25;28.75;;;;;11.48;100.00;101435.09;4974394;28;45312;-78
2022/03/16 08:31:25;;;;;;;;;32.33;27.67;;;;;11.65;100.00;101470.38;4977800;28;46089;-79
2022/03/16 08:33:51;;;;;;;;;25.25;22.75;;;;;11.80;100.00;101495.81;4977129;28;45419;-80
2022/03/16 08:36:17;;;;;;;;;31.00;25.33;;;;;11.81;100.00;101491.22;4974663;28;45265;-79
2022/03/16 08:38:42;;;;;;;;;28.33;26.00;;;;;11.82;100.00;101501.22;4981416;28;45471;-79
2022/03/16 08:41:10;;;;;;;;;31.00;27.00;;;;;11.53;100.00;101437.56;4985139;28;45424;-79
2022/03/16 08:43:36;;;;;;;;;24.50;23.75;;;;;11.78;100.00;101486.88;4976788;28;45394;-79
2022/03/16 08:46:04;;;;;;;;;33.25;26.75;;;;;11.76;100.00;101477.91;4973261;28;45478;-79
2022/03/16 08:48:30;;;;;;;;;28.25;23.75;;;;;11.75;100.00;101486.16;4980132;28;45926;-79
2022/03/16 08:50:55;;;;;;;;;30.25;27.25;;;;;10.27;100.00;101229.19;4973002;28;45558;-79
2022/03/16 08:53:21;;;;;;;;;34.50;29.00;;;;;11.83;100.00;101509.28;4973522;28;45573;-79
2022/03/16 08:55:47;;;;;;;;;27.75;25.00;;;;;11.52;100.00;101446.72;4974423;28;45507;-80
2022/03/16 08:58:15;;;;;;;;;26.00;26.00;;;;;11.85;100.00;101518.25;4976698;28;45447;-78
2022/03/16 09:00:42;;;;;;;;;26.25;26.25;;;;;11.81;100.00;101505.75;4976854;28;45647;-79
2022/03/16 09:03:08;;;;;;;;;26.00;24.25;;;;;11.89;100.00;101517.09;4956879;28;45493;-79
2022/03/16 09:05:34;;;;;;;;;28.33;24.67;;;;;11.92;100.00;101524.22;4944885;28;45352;-78
2022/03/16 09:08:00;;;;;;;;;25.25;23.25;;;;;11.69;100.00;101484.69;4942427;28;45288;-79
2022/03/16 09:10:26;;;;;;;;;34.50;31.00;;;;;11.96;100.00;101528.50;4934341;28;46109;-78
2022/03/16 09:12:52;;;;;;;;;29.33;25.67;;;;;11.60;100.00;101467.03;4918320;28;45560;-79
2022/03/16 09:15:17;;;;;;;;;29.75;29.00;;;;;12.01;100.00;101522.75;4935120;28;45410;-79
2022/03/16 09:17:42;;;;;;;;;30.00;27.50;;;;;12.03;100.00;101521.72;4935357;28;45224;-79
2022/03/16 09:20:08;;;;;;;;;27.00;24.67;;;;;12.07;100.00;101519.69;4935098;28;45438;-78
2022/03/16 09:22:34;;;;;;;;;31.33;26.00;;;;;12.08;100.00;101519.59;4934846;28;45372;-78
2022/03/16 09:25:00;;;;;;;;;34.00;28.25;;;;;12.12;100.00;101515.72;4933497;28;45385;-80
2022/03/16 09:27:26;;;;;;;;;25.25;23.50;;;;;12.06;100.00;101504.28;4955919;28;45442;-78
2022/03/16 09:29:53;;;;;;;;;24.67;24.67;;;;;12.04;100.00;101498.94;4921052;28;47112;-79
2022/03/16 09:32:18;;;;;;;;;30.00;28.00;;;;;12.13;100.00;101511.13;4932517;28;45430;-79
2022/03/16 09:34:43;;;;;;;;;29.00;27.33;;;;;12.20;100.00;101521.53;4933437;28;45850;-79
2022/03/16 09:37:13;;;;;;;;;28.25;26.25;;;;;11.91;100.00;101468.84;4915880;28;45686;-79
2022/03/16 09:39:38;;;;;;;;;26.50;26.50;;;;;12.16;100.00;101513.66;4932936;28;46158;-78
2022/03/16 09:42:05;;;;;;;;;33.00;28.75;;;;;12.27;100.00;101518.47;4933338;28;46120;-79
2022/03/16 09:44:31;;;;;;;;;33.00;25.50;;;;;12.29;100.00;101520.13;4933403;28;45546;-79
2022/03/16 09:46:57;;;;;;;;;30.00;25.33;;;;;12.12;100.00;101487.56;4934227;28;45338;-79
2022/03/16 09:49:26;;;;;;;;;33.00;29.75;;;;;12.36;100.00;101526.94;4935024;28;45442;-79
2022/03/16 09:51:53;;;;;;;;;34.67;24.33;;;;;12.31;100.00;101498.19;4935040;28;45389;-79
2022/03/16 09:54:21;;;;;;;;;29.25;27.75;;;;;12.23;100.00;101476.88;4917238;28;45320;-79
2022/03/16 09:56:47;;;;;;;;;29.75;28.75;;;;;12.19;100.00;101469.84;4934366;28;45532;-79
2022/03/16 09:59:13;;;;;;;;;27.50;24.00;;;;;12.22;100.00;101469.69;4934363;28;46044;-79
2022/03/16 10:01:39;;;;;;;;;33.75;31.25;;;;;12.42;100.00;101487.50;4934562;28;45311;-79
2022/03/16 10:04:06;;;;;;;;;30.25;30.25;;;;;12.51;100.00;101492.38;4941786;28;45537;-80
2022/03/16 10:06:35;;;;;;;;;30.00;28.25;;;;;12.54;100.00;101494.91;4959913;28;45527;-80
2022/03/16 10:15:05;;;;;;;;;37.75;31.00;;;;;12.63;100.00;101498.91;4953209;28;45333;-78
2022/03/16 10:17:43;;;;;;;;;33.25;27.25;;;;;12.37;100.00;101459.66;4953304;28;45530;-78
2022/03/16 10:20:10;;;;;;;;;32.25;28.50;;;;;12.32;100.00;101453.63;4935855;28;46355;-78
2022/03/16 10:22:38;;;;;;;;;31.00;28.25;;;;;12.12;100.00;101398.50;4952047;28;45449;-79
2022/03/16 10:25:07;;;;;;;;;32.50;27.00;;;;;12.65;100.00;101472.41;4972236;28;45459;-78
2022/03/16 10:27:37;;;;;;;;;35.33;29.00;;;;;12.76;100.00;101486.22;4972553;28;45310;-78
2022/03/16 10:30:05;;;;;;;;;31.25;30.75;;;;;12.78;100.00;101487.00;4972344;28;45554;-78
2022/03/16 10:32:31;;;;;;;;;28.25;27.50;;;;;12.79;100.00;101486.03;4977175;28;45247;-78
2022/03/16 10:34:57;;;;;;;;;29.33;28.33;;;;;12.58;100.00;101451.97;4975110;28;45417;-78
2022/03/16 10:37:24;;;;;;;;;34.75;30.25;;;;;12.79;100.00;101476.97;4975966;28;45656;-76
2022/03/16 10:39:51;;;;;;;;;28.33;24.67;;;;;12.67;100.00;101451.34;4982886;28;45580;-78
2022/03/16 10:48:14;;;;;;;;;34.33;29.00;;;;;12.81;100.00;101445.88;4975401;28;45522;-78
2022/03/16 10:50:41;;;;;;;;;33.67;30.00;;;;;13.02;100.00;101479.06;4977337;28;46101;-79
2022/03/16 10:53:09;;;;;;;;;34.33;31.67;;;;;12.53;100.00;101386.78;4957735;28;45414;-79
2022/03/16 10:55:35;;;;;;;;;35.33;32.00;;;;;13.09;100.00;101482.28;4981958;28;45272;-79
2022/03/16 10:58:02;;;;;;;;;32.33;30.33;;;;;13.12;100.00;101465.69;4977979;28;45327;-78
2022/03/16 11:00:28;;;;;;;;;31.00;27.00;;;;;12.46;100.00;101344.50;4973125;28;47870;-78
2022/03/16 11:02:55;;;;;;;;;27.00;27.00;;;;;12.99;100.00;101425.56;4994886;28;45125;-78
2022/03/16 11:05:20;;;;;;;;;29.00;27.00;;;;;13.02;100.00;101416.28;4973865;28;45535;-79
2022/03/16 11:07:50;;;;;;;;;33.67;29.33;;;;;12.58;100.00;101332.81;4988066;28;45426;-78